sensor_id;sensor_type;location;lat;lon;timestamp;temperature;humidity
15113;DHT22;7657;50.140;7.076;2024-02-26T00:02:16;7.30;99.90
15113;DHT22;7657;50.140;7.076;2024-02-26T00:04:43;7.30;99.90
15113;DHT22;7657;50.140;7.076;2024-02-26T00:07:10;7.30;99.90
15113;DHT22;7657;50.140;7.076;2024-02-26T00:09:37;7.30;99.90
15113;DHT22;7657;50.140;7.076;2024-02-26T00:12:04;7.20;99.90
15113;DHT22;7657;50.140;7.076;2024-02-26T00:14:31;7.20;99.90
15113;DHT22;7657;50.140;7.076;2024-02-26T00:16:58;7.30;99.90
15113;DHT22;7657;50.140;7.076;2024-02-26T00:19:26;7.30;99.90
15113;DHT22;7657;50.140;7.076;2024-02-26T00:21:53;7.40;99.90
15113;DHT22;7657;50.140;7.076;2024-02-26T00:24:21;7.40;99.90
15113;DHT22;7657;50.140;7.076;2024-02-26T00:26:48;7.30;99.90
15113;DHT22;7657;50.140;7.076;2024-02-26T00:29:18;7.20;99.90
15113;DHT22;7657;50.140;7.076;2024-02-26T00:31:45;7.00;99.90
15113;DHT22;7657;50.140;7.076;2024-02-26T00:34:12;7.00;99.90
15113;DHT22;7657;50.140;7.076;2024-02-26T00:36:40;6.90;99.90
15113;DHT22;7657;50.140;7.076;2024-02-26T00:39:07;6.90;99.90
15113;DHT22;7657;50.140;7.076;2024-02-26T00:41:38;6.80;99.90
15113;DHT22;7657;50.140;7.076;2024-02-26T00:44:06;6.80;99.90
15113;DHT22;7657;50.140;7.076;2024-02-26T00:46:33;6.80;99.90
15113;DHT22;7657;50.140;7.076;2024-02-26T00:48:59;6.80;99.90
15113;DHT22;7657;50.140;7.076;2024-02-26T00:51:27;6.90;99.90
15113;DHT22;7657;50.140;7.076;2024-02-26T00:53:55;6.90;99.90
15113;DHT22;7657;50.140;7.076;2024-02-26T00:56:22;7.00;99.90
15113;DHT22;7657;50.140;7.076;2024-02-26T00:58:49;7.10;99.90
15113;DHT22;7657;50.140;7.076;2024-02-26T01:01:16;7.30;99.90
15113;DHT22;7657;50.140;7.076;2024-02-26T01:03:43;7.40;99.90
15113;DHT22;7657;50.140;7.076;2024-02-26T01:06:10;7.30;99.90
15113;DHT22;7657;50.140;7.076;2024-02-26T01:08:37;7.10;99.90
15113;DHT22;7657;50.140;7.076;2024-02-26T01:11:06;7.10;99.90
15113;DHT22;7657;50.140;7.076;2024-02-26T01:13:33;7.10;99.90
15113;DHT22;7657;50.140;7.076;2024-02-26T01:16:00;7.10;99.90
15113;DHT22;7657;50.140;7.076;2024-02-26T01:18:27;7.20;99.90
15113;DHT22;7657;50.140;7.076;2024-02-26T01:20:54;7.30;99.90
15113;DHT22;7657;50.140;7.076;2024-02-26T01:23:21;7.40;99.90
15113;DHT22;7657;50.140;7.076;2024-02-26T01:25:48;7.50;99.90
15113;DHT22;7657;50.140;7.076;2024-02-26T01:28:16;7.50;99.90
15113;DHT22;7657;50.140;7.076;2024-02-26T01:30:43;7.40;99.90
15113;DHT22;7657;50.140;7.076;2024-02-26T01:33:10;7.40;99.90
15113;DHT22;7657;50.140;7.076;2024-02-26T01:35:37;7.40;99.90
15113;DHT22;7657;50.140;7.076;2024-02-26T01:38:05;7.50;99.90
15113;DHT22;7657;50.140;7.076;2024-02-26T01:40:32;7.30;99.90
15113;DHT22;7657;50.140;7.076;2024-02-26T01:42:59;7.40;99.90
15113;DHT22;7657;50.140;7.076;2024-02-26T01:45:28;7.30;99.90
15113;DHT22;7657;50.140;7.076;2024-02-26T01:47:55;7.30;99.90
15113;DHT22;7657;50.140;7.076;2024-02-26T01:50:23;7.30;99.90
15113;DHT22;7657;50.140;7.076;2024-02-26T01:52:51;7.40;99.90
15113;DHT22;7657;50.140;7.076;2024-02-26T01:55:20;7.40;99.90
15113;DHT22;7657;50.140;7.076;2024-02-26T01:57:49;7.50;99.90
15113;DHT22;7657;50.140;7.076;2024-02-26T02:00:18;7.50;99.90
15113;DHT22;7657;50.140;7.076;2024-02-26T02:02:48;7.50;99.90
15113;DHT22;7657;50.140;7.076;2024-02-26T02:05:16;7.30;99.90
15113;DHT22;7657;50.140;7.076;2024-02-26T02:07:43;7.40;99.90
15113;DHT22;7657;50.140;7.076;2024-02-26T02:10:11;7.30;99.90
15113;DHT22;7657;50.140;7.076;2024-02-26T02:12:38;7.30;99.90
15113;DHT22;7657;50.140;7.076;2024-02-26T02:15:06;7.30;99.90
15113;DHT22;7657;50.140;7.076;2024-02-26T02:17:34;7.40;99.90
15113;DHT22;7657;50.140;7.076;2024-02-26T02:20:02;7.30;99.90
15113;DHT22;7657;50.140;7.076;2024-02-26T02:22:31;7.30;99.90
15113;DHT22;7657;50.140;7.076;2024-02-26T02:24:59;7.20;99.90
15113;DHT22;7657;50.140;7.076;2024-02-26T02:27:26;7.20;99.90
15113;DHT22;7657;50.140;7.076;2024-02-26T02:29:54;7.20;99.90
15113;DHT22;7657;50.140;7.076;2024-02-26T02:32:21;7.20;99.90
15113;DHT22;7657;50.140;7.076;2024-02-26T02:34:49;7.20;99.90
15113;DHT22;7657;50.140;7.076;2024-02-26T02:37:16;7.20;99.90
15113;DHT22;7657;50.140;7.076;2024-02-26T02:39:44;7.20;99.90
15113;DHT22;7657;50.140;7.076;2024-02-26T02:42:12;7.10;99.90
15113;DHT22;7657;50.140;7.076;2024-02-26T02:44:39;7.10;99.90
15113;DHT22;7657;50.140;7.076;2024-02-26T02:47:06;7.10;99.90
15113;DHT22;7657;50.140;7.076;2024-02-26T02:49:33;7.10;99.90
15113;DHT22;7657;50.140;7.076;2024-02-26T02:52:00;6.90;99.90
15113;DHT22;7657;50.140;7.076;2024-02-26T02:54:27;6.90;99.90
15113;DHT22;7657;50.140;7.076;2024-02-26T02:56:55;7.00;99.90
15113;DHT22;7657;50.140;7.076;2024-02-26T02:59:22;6.90;99.90
15113;DHT22;7657;50.140;7.076;2024-02-26T03:01:49;6.90;99.90
15113;DHT22;7657;50.140;7.076;2024-02-26T03:04:16;6.80;99.90
15113;DHT22;7657;50.140;7.076;2024-02-26T03:06:42;6.70;99.90
15113;DHT22;7657;50.140;7.076;2024-02-26T03:09:09;6.70;99.90
15113;DHT22;7657;50.140;7.076;2024-02-26T03:11:36;6.80;99.90
15113;DHT22;7657;50.140;7.076;2024-02-26T03:14:05;6.80;99.90
15113;DHT22;7657;50.140;7.076;2024-02-26T03:16:33;6.70;99.90
15113;DHT22;7657;50.140;7.076;2024-02-26T03:19:00;6.70;99.90
15113;DHT22;7657;50.140;7.076;2024-02-26T03:21:27;6.60;99.90
15113;DHT22;7657;50.140;7.076;2024-02-26T03:23:54;6.60;99.90
15113;DHT22;7657;50.140;7.076;2024-02-26T03:26:21;6.60;99.90
15113;DHT22;7657;50.140;7.076;2024-02-26T03:28:48;6.40;99.90
15113;DHT22;7657;50.140;7.076;2024-02-26T03:31:16;6.40;99.90
15113;DHT22;7657;50.140;7.076;2024-02-26T03:33:43;6.50;99.90
15113;DHT22;7657;50.140;7.076;2024-02-26T03:36:10;6.50;99.90
15113;DHT22;7657;50.140;7.076;2024-02-26T03:38:37;6.40;99.90
15113;DHT22;7657;50.140;7.076;2024-02-26T03:41:04;6.60;99.90
15113;DHT22;7657;50.140;7.076;2024-02-26T03:43:31;6.60;99.90
15113;DHT22;7657;50.140;7.076;2024-02-26T03:45:58;6.60;99.90
15113;DHT22;7657;50.140;7.076;2024-02-26T03:48:27;6.60;99.90
15113;DHT22;7657;50.140;7.076;2024-02-26T03:50:53;6.70;99.90
15113;DHT22;7657;50.140;7.076;2024-02-26T03:53:20;6.70;99.90
15113;DHT22;7657;50.140;7.076;2024-02-26T03:55:47;6.70;99.90
15113;DHT22;7657;50.140;7.076;2024-02-26T03:58:14;6.60;99.90
15113;DHT22;7657;50.140;7.076;2024-02-26T04:00:42;6.80;99.90
15113;DHT22;7657;50.140;7.076;2024-02-26T04:03:09;6.80;99.90
15113;DHT22;7657;50.140;7.076;2024-02-26T04:05:37;6.70;99.90
15113;DHT22;7657;50.140;7.076;2024-02-26T04:08:05;6.80;99.90
15113;DHT22;7657;50.140;7.076;2024-02-26T04:10:33;6.70;99.90
15113;DHT22;7657;50.140;7.076;2024-02-26T04:13:03;6.70;99.90
15113;DHT22;7657;50.140;7.076;2024-02-26T04:15:30;6.70;99.90
15113;DHT22;7657;50.140;7.076;2024-02-26T04:17:57;6.50;99.90
15113;DHT22;7657;50.140;7.076;2024-02-26T04:20:24;6.60;99.90
15113;DHT22;7657;50.140;7.076;2024-02-26T04:22:52;6.50;99.90
15113;DHT22;7657;50.140;7.076;2024-02-26T04:25:19;6.50;99.90
15113;DHT22;7657;50.140;7.076;2024-02-26T04:27:46;6.50;99.90
15113;DHT22;7657;50.140;7.076;2024-02-26T04:30:13;6.60;99.90
15113;DHT22;7657;50.140;7.076;2024-02-26T04:32:40;6.70;99.90
15113;DHT22;7657;50.140;7.076;2024-02-26T04:35:07;6.80;99.90
15113;DHT22;7657;50.140;7.076;2024-02-26T04:37:34;6.70;99.90
15113;DHT22;7657;50.140;7.076;2024-02-26T04:40:03;6.70;99.90
15113;DHT22;7657;50.140;7.076;2024-02-26T04:42:30;6.70;99.90
15113;DHT22;7657;50.140;7.076;2024-02-26T04:44:57;6.60;99.90
15113;DHT22;7657;50.140;7.076;2024-02-26T04:47:24;6.60;99.90
15113;DHT22;7657;50.140;7.076;2024-02-26T04:49:51;6.50;99.90
15113;DHT22;7657;50.140;7.076;2024-02-26T04:52:19;6.50;99.90
15113;DHT22;7657;50.140;7.076;2024-02-26T04:54:44;6.60;99.90
15113;DHT22;7657;50.140;7.076;2024-02-26T04:57:13;6.70;99.90
15113;DHT22;7657;50.140;7.076;2024-02-26T04:59:40;6.60;99.90
15113;DHT22;7657;50.140;7.076;2024-02-26T05:02:08;6.60;99.90
15113;DHT22;7657;50.140;7.076;2024-02-26T05:04:35;6.50;99.90
15113;DHT22;7657;50.140;7.076;2024-02-26T05:07:02;6.40;99.90
15113;DHT22;7657;50.140;7.076;2024-02-26T05:09:29;6.40;99.90
15113;DHT22;7657;50.140;7.076;2024-02-26T05:11:55;6.40;99.90
15113;DHT22;7657;50.140;7.076;2024-02-26T05:14:24;6.50;99.90
15113;DHT22;7657;50.140;7.076;2024-02-26T05:16:51;6.60;99.90
15113;DHT22;7657;50.140;7.076;2024-02-26T05:19:18;6.60;99.90
15113;DHT22;7657;50.140;7.076;2024-02-26T05:21:44;6.60;99.90
15113;DHT22;7657;50.140;7.076;2024-02-26T05:24:13;6.60;99.90
15113;DHT22;7657;50.140;7.076;2024-02-26T05:26:41;6.60;99.90
15113;DHT22;7657;50.140;7.076;2024-02-26T05:29:08;6.60;99.90
15113;DHT22;7657;50.140;7.076;2024-02-26T05:31:36;6.70;99.90
15113;DHT22;7657;50.140;7.076;2024-02-26T05:34:03;6.70;99.90
15113;DHT22;7657;50.140;7.076;2024-02-26T05:36:30;6.70;99.90
15113;DHT22;7657;50.140;7.076;2024-02-26T05:38:59;6.70;99.90
15113;DHT22;7657;50.140;7.076;2024-02-26T05:41:26;6.70;99.90
15113;DHT22;7657;50.140;7.076;2024-02-26T05:43:53;6.80;99.90
15113;DHT22;7657;50.140;7.076;2024-02-26T05:46:20;6.70;99.90
15113;DHT22;7657;50.140;7.076;2024-02-26T05:48:50;6.70;99.90
15113;DHT22;7657;50.140;7.076;2024-02-26T05:51:18;6.80;99.90
15113;DHT22;7657;50.140;7.076;2024-02-26T05:53:44;6.80;99.90
15113;DHT22;7657;50.140;7.076;2024-02-26T05:56:12;6.80;99.90
15113;DHT22;7657;50.140;7.076;2024-02-26T05:58:39;6.80;99.90
15113;DHT22;7657;50.140;7.076;2024-02-26T06:01:06;6.80;99.90
15113;DHT22;7657;50.140;7.076;2024-02-26T06:03:33;6.90;99.90
15113;DHT22;7657;50.140;7.076;2024-02-26T06:06:01;6.80;99.90
15113;DHT22;7657;50.140;7.076;2024-02-26T06:08:28;6.80;99.90
15113;DHT22;7657;50.140;7.076;2024-02-26T06:10:55;6.90;99.90
15113;DHT22;7657;50.140;7.076;2024-02-26T06:13:21;6.90;99.90
15113;DHT22;7657;50.140;7.076;2024-02-26T06:15:48;7.00;99.90
15113;DHT22;7657;50.140;7.076;2024-02-26T06:18:15;7.00;99.90
15113;DHT22;7657;50.140;7.076;2024-02-26T06:20:42;6.90;99.90
15113;DHT22;7657;50.140;7.076;2024-02-26T06:23:12;7.00;99.90
15113;DHT22;7657;50.140;7.076;2024-02-26T06:25:39;7.00;99.90
15113;DHT22;7657;50.140;7.076;2024-02-26T06:28:07;7.10;99.90
15113;DHT22;7657;50.140;7.076;2024-02-26T06:30:34;7.10;99.90
15113;DHT22;7657;50.140;7.076;2024-02-26T06:33:01;7.20;99.90
15113;DHT22;7657;50.140;7.076;2024-02-26T06:35:28;7.20;99.90
15113;DHT22;7657;50.140;7.076;2024-02-26T06:37:55;7.20;99.90
15113;DHT22;7657;50.140;7.076;2024-02-26T06:40:23;7.20;99.90
15113;DHT22;7657;50.140;7.076;2024-02-26T06:42:51;7.20;99.90
15113;DHT22;7657;50.140;7.076;2024-02-26T06:45:17;7.30;99.90
15113;DHT22;7657;50.140;7.076;2024-02-26T06:47:45;7.20;99.90
15113;DHT22;7657;50.140;7.076;2024-02-26T06:50:12;7.20;99.90
15113;DHT22;7657;50.140;7.076;2024-02-26T06:52:40;7.10;99.90
15113;DHT22;7657;50.140;7.076;2024-02-26T06:55:07;7.10;99.90
15113;DHT22;7657;50.140;7.076;2024-02-26T06:57:35;7.20;99.90
15113;DHT22;7657;50.140;7.076;2024-02-26T07:00:03;7.20;99.90
15113;DHT22;7657;50.140;7.076;2024-02-26T07:02:30;7.20;99.90
15113;DHT22;7657;50.140;7.076;2024-02-26T07:04:57;7.10;99.90
15113;DHT22;7657;50.140;7.076;2024-02-26T07:07:24;7.00;99.90
15113;DHT22;7657;50.140;7.076;2024-02-26T07:09:51;7.00;99.90
15113;DHT22;7657;50.140;7.076;2024-02-26T07:12:18;7.10;99.90
15113;DHT22;7657;50.140;7.076;2024-02-26T07:14:48;7.10;99.90
15113;DHT22;7657;50.140;7.076;2024-02-26T07:17:16;7.10;99.90
15113;DHT22;7657;50.140;7.076;2024-02-26T07:19:43;7.10;99.90
15113;DHT22;7657;50.140;7.076;2024-02-26T07:22:09;7.10;99.90
15113;DHT22;7657;50.140;7.076;2024-02-26T07:24:36;7.10;99.90
15113;DHT22;7657;50.140;7.076;2024-02-26T07:27:04;7.20;99.90
15113;DHT22;7657;50.140;7.076;2024-02-26T07:29:31;7.10;99.90
15113;DHT22;7657;50.140;7.076;2024-02-26T07:31:59;7.10;99.90
15113;DHT22;7657;50.140;7.076;2024-02-26T07:34:26;7.10;99.90
15113;DHT22;7657;50.140;7.076;2024-02-26T07:36:54;7.20;99.90
15113;DHT22;7657;50.140;7.076;2024-02-26T07:39:21;7.30;99.90
15113;DHT22;7657;50.140;7.076;2024-02-26T07:41:48;7.30;99.90
15113;DHT22;7657;50.140;7.076;2024-02-26T07:44:18;7.20;99.90
15113;DHT22;7657;50.140;7.076;2024-02-26T07:46:45;7.10;99.90
15113;DHT22;7657;50.140;7.076;2024-02-26T07:49:13;6.90;99.90
15113;DHT22;7657;50.140;7.076;2024-02-26T07:51:40;6.90;99.90
15113;DHT22;7657;50.140;7.076;2024-02-26T07:54:06;7.00;99.90
15113;DHT22;7657;50.140;7.076;2024-02-26T07:56:33;7.00;99.90
15113;DHT22;7657;50.140;7.076;2024-02-26T07:59:00;7.10;99.90
15113;DHT22;7657;50.140;7.076;2024-02-26T08:01:27;7.10;99.90
15113;DHT22;7657;50.140;7.076;2024-02-26T08:03:54;7.20;99.90
15113;DHT22;7657;50.140;7.076;2024-02-26T08:06:23;7.20;99.90
15113;DHT22;7657;50.140;7.076;2024-02-26T08:08:50;7.10;99.90
15113;DHT22;7657;50.140;7.076;2024-02-26T08:11:17;7.10;99.90
15113;DHT22;7657;50.140;7.076;2024-02-26T08:13:44;7.00;99.90
15113;DHT22;7657;50.140;7.076;2024-02-26T08:16:11;7.10;99.90
15113;DHT22;7657;50.140;7.076;2024-02-26T08:18:38;7.00;99.90
15113;DHT22;7657;50.140;7.076;2024-02-26T08:21:05;7.00;99.90
15113;DHT22;7657;50.140;7.076;2024-02-26T08:23:34;7.00;99.90
15113;DHT22;7657;50.140;7.076;2024-02-26T08:26:01;7.00;99.90
15113;DHT22;7657;50.140;7.076;2024-02-26T08:28:29;7.00;99.90
15113;DHT22;7657;50.140;7.076;2024-02-26T08:30:56;7.00;99.90
15113;DHT22;7657;50.140;7.076;2024-02-26T08:33:24;7.00;99.90
15113;DHT22;7657;50.140;7.076;2024-02-26T08:35:50;7.00;99.90
15113;DHT22;7657;50.140;7.076;2024-02-26T08:38:17;7.00;99.90
15113;DHT22;7657;50.140;7.076;2024-02-26T08:40:46;7.00;99.90
15113;DHT22;7657;50.140;7.076;2024-02-26T08:43:12;7.00;99.90
15113;DHT22;7657;50.140;7.076;2024-02-26T08:45:39;7.10;99.90
15113;DHT22;7657;50.140;7.076;2024-02-26T08:48:07;7.00;99.90
15113;DHT22;7657;50.140;7.076;2024-02-26T08:50:34;6.90;99.90
15113;DHT22;7657;50.140;7.076;2024-02-26T08:53:01;6.90;99.90
15113;DHT22;7657;50.140;7.076;2024-02-26T08:55:29;7.00;99.90
15113;DHT22;7657;50.140;7.076;2024-02-26T08:57:57;7.00;99.90
15113;DHT22;7657;50.140;7.076;2024-02-26T09:00:24;7.20;99.90
15113;DHT22;7657;50.140;7.076;2024-02-26T09:02:51;7.20;99.90
15113;DHT22;7657;50.140;7.076;2024-02-26T09:05:18;7.20;99.90
15113;DHT22;7657;50.140;7.076;2024-02-26T09:07:45;7.30;99.90
15113;DHT22;7657;50.140;7.076;2024-02-26T09:10:13;7.30;99.90
15113;DHT22;7657;50.140;7.076;2024-02-26T09:12:40;7.20;99.90
15113;DHT22;7657;50.140;7.076;2024-02-26T09:15:09;7.10;99.90
15113;DHT22;7657;50.140;7.076;2024-02-26T09:17:36;7.10;99.90
15113;DHT22;7657;50.140;7.076;2024-02-26T09:20:03;7.10;99.90
15113;DHT22;7657;50.140;7.076;2024-02-26T09:22:31;7.10;99.90
15113;DHT22;7657;50.140;7.076;2024-02-26T09:25:00;7.20;99.90
15113;DHT22;7657;50.140;7.076;2024-02-26T09:27:27;7.30;99.90
15113;DHT22;7657;50.140;7.076;2024-02-26T09:29:56;7.40;99.90
15113;DHT22;7657;50.140;7.076;2024-02-26T09:32:24;7.40;99.90
15113;DHT22;7657;50.140;7.076;2024-02-26T09:34:51;7.40;99.90
15113;DHT22;7657;50.140;7.076;2024-02-26T09:37:18;7.50;99.90
15113;DHT22;7657;50.140;7.076;2024-02-26T09:39:45;7.40;99.90
15113;DHT22;7657;50.140;7.076;2024-02-26T09:42:13;7.40;99.90
15113;DHT22;7657;50.140;7.076;2024-02-26T09:44:40;7.50;99.90
15113;DHT22;7657;50.140;7.076;2024-02-26T09:47:10;7.40;99.90
15113;DHT22;7657;50.140;7.076;2024-02-26T09:49:38;7.30;99.90
15113;DHT22;7657;50.140;7.076;2024-02-26T09:52:06;7.30;99.90
15113;DHT22;7657;50.140;7.076;2024-02-26T09:54:35;7.50;99.90
15113;DHT22;7657;50.140;7.076;2024-02-26T09:57:03;7.50;99.90
15113;DHT22;7657;50.140;7.076;2024-02-26T09:59:34;7.60;99.90
15113;DHT22;7657;50.140;7.076;2024-02-26T10:02:04;7.60;99.90
15113;DHT22;7657;50.140;7.076;2024-02-26T10:04:31;7.60;99.90
15113;DHT22;7657;50.140;7.076;2024-02-26T10:07:00;7.60;99.90
15113;DHT22;7657;50.140;7.076;2024-02-26T10:09:29;7.70;99.90
15113;DHT22;7657;50.140;7.076;2024-02-26T10:11:57;7.80;99.90
15113;DHT22;7657;50.140;7.076;2024-02-26T10:14:25;7.80;99.90
15113;DHT22;7657;50.140;7.076;2024-02-26T10:16:52;7.80;99.90
15113;DHT22;7657;50.140;7.076;2024-02-26T10:19:25;7.80;99.90
15113;DHT22;7657;50.140;7.076;2024-02-26T10:21:56;7.80;99.90
15113;DHT22;7657;50.140;7.076;2024-02-26T10:24:24;7.90;99.90
15113;DHT22;7657;50.140;7.076;2024-02-26T10:26:52;8.00;99.90
15113;DHT22;7657;50.140;7.076;2024-02-26T10:29:19;8.00;99.90
15113;DHT22;7657;50.140;7.076;2024-02-26T10:31:46;8.10;99.90
15113;DHT22;7657;50.140;7.076;2024-02-26T10:34:15;8.00;99.90
15113;DHT22;7657;50.140;7.076;2024-02-26T10:36:42;8.00;99.90
15113;DHT22;7657;50.140;7.076;2024-02-26T10:39:11;7.90;99.90
15113;DHT22;7657;50.140;7.076;2024-02-26T10:41:40;8.00;99.90
15113;DHT22;7657;50.140;7.076;2024-02-26T10:44:09;8.10;99.90
15113;DHT22;7657;50.140;7.076;2024-02-26T10:46:38;8.00;99.90
15113;DHT22;7657;50.140;7.076;2024-02-26T10:49:05;8.00;99.90
15113;DHT22;7657;50.140;7.076;2024-02-26T10:51:34;8.00;99.90
15113;DHT22;7657;50.140;7.076;2024-02-26T10:54:04;8.00;99.90
15113;DHT22;7657;50.140;7.076;2024-02-26T10:56:34;8.00;99.90
15113;DHT22;7657;50.140;7.076;2024-02-26T10:59:07;8.10;99.90
15113;DHT22;7657;50.140;7.076;2024-02-26T11:01:35;8.10;99.90
15113;DHT22;7657;50.140;7.076;2024-02-26T11:04:04;8.10;99.90
15113;DHT22;7657;50.140;7.076;2024-02-26T11:06:31;8.20;99.90
15113;DHT22;7657;50.140;7.076;2024-02-26T11:09:01;8.20;99.90
15113;DHT22;7657;50.140;7.076;2024-02-26T11:11:30;8.20;99.90
15113;DHT22;7657;50.140;7.076;2024-02-26T11:14:01;8.30;99.90
15113;DHT22;7657;50.140;7.076;2024-02-26T11:16:31;8.10;99.90
15113;DHT22;7657;50.140;7.076;2024-02-26T11:19:02;8.20;99.90
15113;DHT22;7657;50.140;7.076;2024-02-26T11:21:29;8.20;99.90
15113;DHT22;7657;50.140;7.076;2024-02-26T11:24:05;8.30;99.90
15113;DHT22;7657;50.140;7.076;2024-02-26T11:26:33;8.20;99.90
15113;DHT22;7657;50.140;7.076;2024-02-26T11:29:01;8.40;99.90
15113;DHT22;7657;50.140;7.076;2024-02-26T11:31:30;8.40;99.90
15113;DHT22;7657;50.140;7.076;2024-02-26T11:33:58;8.50;99.90
15113;DHT22;7657;50.140;7.076;2024-02-26T11:36:25;8.60;99.90
15113;DHT22;7657;50.140;7.076;2024-02-26T11:38:52;8.60;99.90
15113;DHT22;7657;50.140;7.076;2024-02-26T11:41:22;8.70;99.90
15113;DHT22;7657;50.140;7.076;2024-02-26T11:43:50;8.60;99.90
15113;DHT22;7657;50.140;7.076;2024-02-26T11:46:27;8.50;99.90
15113;DHT22;7657;50.140;7.076;2024-02-26T11:48:58;8.50;99.90
15113;DHT22;7657;50.140;7.076;2024-02-26T11:51:26;8.50;99.90
15113;DHT22;7657;50.140;7.076;2024-02-26T11:53:54;8.60;99.90
15113;DHT22;7657;50.140;7.076;2024-02-26T11:56:23;8.70;99.90
15113;DHT22;7657;50.140;7.076;2024-02-26T11:58:56;8.80;99.90
15113;DHT22;7657;50.140;7.076;2024-02-26T12:01:39;8.80;99.90
15113;DHT22;7657;50.140;7.076;2024-02-26T12:04:12;8.80;99.90
15113;DHT22;7657;50.140;7.076;2024-02-26T12:06:49;8.90;99.90
15113;DHT22;7657;50.140;7.076;2024-02-26T12:09:36;9.00;99.90
15113;DHT22;7657;50.140;7.076;2024-02-26T12:12:05;9.10;99.90
15113;DHT22;7657;50.140;7.076;2024-02-26T12:14:38;9.10;99.90
15113;DHT22;7657;50.140;7.076;2024-02-26T12:17:05;9.10;99.90
15113;DHT22;7657;50.140;7.076;2024-02-26T12:19:36;8.90;99.90
15113;DHT22;7657;50.140;7.076;2024-02-26T12:22:06;8.80;99.90
15113;DHT22;7657;50.140;7.076;2024-02-26T12:24:33;8.70;99.90
15113;DHT22;7657;50.140;7.076;2024-02-26T12:27:00;8.70;99.90
15113;DHT22;7657;50.140;7.076;2024-02-26T12:29:27;8.70;99.90
15113;DHT22;7657;50.140;7.076;2024-02-26T12:31:54;8.70;99.90
15113;DHT22;7657;50.140;7.076;2024-02-26T12:34:21;8.60;99.90
15113;DHT22;7657;50.140;7.076;2024-02-26T12:36:49;8.70;99.90
15113;DHT22;7657;50.140;7.076;2024-02-26T12:39:17;8.70;99.90
15113;DHT22;7657;50.140;7.076;2024-02-26T12:41:45;8.70;99.90
15113;DHT22;7657;50.140;7.076;2024-02-26T12:44:15;8.70;99.90
15113;DHT22;7657;50.140;7.076;2024-02-26T12:46:42;8.70;99.90
15113;DHT22;7657;50.140;7.076;2024-02-26T12:49:08;8.60;99.90
15113;DHT22;7657;50.140;7.076;2024-02-26T12:51:40;8.60;99.90
15113;DHT22;7657;50.140;7.076;2024-02-26T12:54:09;8.60;99.90
15113;DHT22;7657;50.140;7.076;2024-02-26T12:56:36;8.60;99.90
15113;DHT22;7657;50.140;7.076;2024-02-26T12:59:04;8.70;99.90
15113;DHT22;7657;50.140;7.076;2024-02-26T13:01:31;8.70;99.90
15113;DHT22;7657;50.140;7.076;2024-02-26T13:03:59;8.70;99.90
15113;DHT22;7657;50.140;7.076;2024-02-26T13:06:26;8.70;99.90
15113;DHT22;7657;50.140;7.076;2024-02-26T13:08:56;8.80;99.90
15113;DHT22;7657;50.140;7.076;2024-02-26T13:11:26;8.80;99.90
15113;DHT22;7657;50.140;7.076;2024-02-26T13:13:54;8.80;99.90
15113;DHT22;7657;50.140;7.076;2024-02-26T13:16:24;8.90;99.90
15113;DHT22;7657;50.140;7.076;2024-02-26T13:18:51;8.90;99.90
15113;DHT22;7657;50.140;7.076;2024-02-26T13:21:18;8.90;99.90
15113;DHT22;7657;50.140;7.076;2024-02-26T13:23:49;8.90;99.90
15113;DHT22;7657;50.140;7.076;2024-02-26T13:26:16;8.90;99.90
15113;DHT22;7657;50.140;7.076;2024-02-26T13:28:44;8.90;99.90
15113;DHT22;7657;50.140;7.076;2024-02-26T13:31:11;8.90;99.90
15113;DHT22;7657;50.140;7.076;2024-02-26T13:33:38;9.00;99.90
15113;DHT22;7657;50.140;7.076;2024-02-26T13:36:05;9.00;99.90
15113;DHT22;7657;50.140;7.076;2024-02-26T13:38:32;9.00;99.90
15113;DHT22;7657;50.140;7.076;2024-02-26T13:41:00;8.80;99.90
15113;DHT22;7657;50.140;7.076;2024-02-26T13:43:26;8.80;99.90
15113;DHT22;7657;50.140;7.076;2024-02-26T13:45:55;8.90;99.90
15113;DHT22;7657;50.140;7.076;2024-02-26T13:48:22;8.90;99.90
15113;DHT22;7657;50.140;7.076;2024-02-26T13:50:49;8.90;99.90
15113;DHT22;7657;50.140;7.076;2024-02-26T13:53:16;8.90;99.90
15113;DHT22;7657;50.140;7.076;2024-02-26T13:55:43;8.80;99.90
15113;DHT22;7657;50.140;7.076;2024-02-26T13:58:12;8.80;99.90
15113;DHT22;7657;50.140;7.076;2024-02-26T14:00:39;8.80;99.90
15113;DHT22;7657;50.140;7.076;2024-02-26T14:03:08;8.80;99.90
15113;DHT22;7657;50.140;7.076;2024-02-26T14:05:35;8.70;99.90
15113;DHT22;7657;50.140;7.076;2024-02-26T14:08:02;8.60;99.90
15113;DHT22;7657;50.140;7.076;2024-02-26T14:10:29;8.50;99.90
15113;DHT22;7657;50.140;7.076;2024-02-26T14:12:57;8.40;99.90
15113;DHT22;7657;50.140;7.076;2024-02-26T14:15:24;8.40;99.90
15113;DHT22;7657;50.140;7.076;2024-02-26T14:17:51;8.30;99.90
15113;DHT22;7657;50.140;7.076;2024-02-26T14:20:23;8.20;99.90
15113;DHT22;7657;50.140;7.076;2024-02-26T14:22:50;8.20;99.90
15113;DHT22;7657;50.140;7.076;2024-02-26T14:25:18;8.20;99.90
15113;DHT22;7657;50.140;7.076;2024-02-26T14:27:46;8.20;99.90
15113;DHT22;7657;50.140;7.076;2024-02-26T14:30:13;8.10;99.90
15113;DHT22;7657;50.140;7.076;2024-02-26T14:32:40;8.20;99.90
15113;DHT22;7657;50.140;7.076;2024-02-26T14:35:08;8.10;99.90
15113;DHT22;7657;50.140;7.076;2024-02-26T14:37:37;8.10;99.90
15113;DHT22;7657;50.140;7.076;2024-02-26T14:40:05;8.20;99.90
15113;DHT22;7657;50.140;7.076;2024-02-26T14:42:32;8.20;99.90
15113;DHT22;7657;50.140;7.076;2024-02-26T14:44:59;8.10;99.90
15113;DHT22;7657;50.140;7.076;2024-02-26T14:47:26;8.10;99.90
15113;DHT22;7657;50.140;7.076;2024-02-26T14:49:54;8.20;99.90
15113;DHT22;7657;50.140;7.076;2024-02-26T14:52:21;8.20;99.90
15113;DHT22;7657;50.140;7.076;2024-02-26T14:54:49;8.20;99.90
15113;DHT22;7657;50.140;7.076;2024-02-26T14:57:17;8.20;99.90
15113;DHT22;7657;50.140;7.076;2024-02-26T14:59:44;8.20;99.90
15113;DHT22;7657;50.140;7.076;2024-02-26T15:02:11;8.20;99.90
15113;DHT22;7657;50.140;7.076;2024-02-26T15:04:37;8.20;99.90
15113;DHT22;7657;50.140;7.076;2024-02-26T15:07:04;8.10;99.90
15113;DHT22;7657;50.140;7.076;2024-02-26T15:09:31;8.10;99.90
15113;DHT22;7657;50.140;7.076;2024-02-26T15:11:59;8.00;99.90
15113;DHT22;7657;50.140;7.076;2024-02-26T15:14:26;8.00;99.90
15113;DHT22;7657;50.140;7.076;2024-02-26T15:16:53;8.00;99.90
15113;DHT22;7657;50.140;7.076;2024-02-26T15:19:20;8.00;99.90
15113;DHT22;7657;50.140;7.076;2024-02-26T15:21:47;8.10;99.90
15113;DHT22;7657;50.140;7.076;2024-02-26T15:24:15;8.20;99.90
15113;DHT22;7657;50.140;7.076;2024-02-26T15:26:43;8.10;99.90
15113;DHT22;7657;50.140;7.076;2024-02-26T15:29:11;8.20;99.90
15113;DHT22;7657;50.140;7.076;2024-02-26T15:31:38;8.20;99.90
15113;DHT22;7657;50.140;7.076;2024-02-26T15:34:05;8.20;99.90
15113;DHT22;7657;50.140;7.076;2024-02-26T15:36:34;8.20;99.90
15113;DHT22;7657;50.140;7.076;2024-02-26T15:39:01;8.30;99.90
15113;DHT22;7657;50.140;7.076;2024-02-26T15:41:28;8.30;99.90
15113;DHT22;7657;50.140;7.076;2024-02-26T15:43:56;8.20;99.90
15113;DHT22;7657;50.140;7.076;2024-02-26T15:46:24;8.10;99.90
15113;DHT22;7657;50.140;7.076;2024-02-26T15:48:51;8.20;99.90
15113;DHT22;7657;50.140;7.076;2024-02-26T15:51:19;8.20;99.90
15113;DHT22;7657;50.140;7.076;2024-02-26T15:53:46;8.20;99.90
15113;DHT22;7657;50.140;7.076;2024-02-26T15:56:14;8.10;99.90
15113;DHT22;7657;50.140;7.076;2024-02-26T15:58:41;8.00;99.90
15113;DHT22;7657;50.140;7.076;2024-02-26T16:01:08;7.90;99.90
15113;DHT22;7657;50.140;7.076;2024-02-26T16:03:38;7.90;99.90
15113;DHT22;7657;50.140;7.076;2024-02-26T16:06:06;7.90;99.90